Anadarko, Oklahoma
Current Conditions -  °F | °C
As of 11:58 AM on Saturday 25 Oct 2014 (Local Time) from KFSI Reporting Station
Clear Clear  
Wind Chill: 80°   Ceiling: Unl
Heat Index: 81°   Visibility: 10mi
Dew Point: 58°   Wind: 8mph
Humidity: 47%   Direction: 220°SW
Pressure: 30.1"   Gusts: NA
Location:  35.07°N, 98.24°W
Report Text: KFSI 251658Z AUTO 22007KT 10SM CLR 27/15 A3010 RMK AO2 SLP185 T02680145
Loading
Personal Weather Stations






























Interactive Weather Map
Tropical Storm Tracking
New forecast layout! Learn more

10-Day Weather Forecast

Advertisements
Track Severe Weather on mobile